createdAt,value
2023-02-14T00:01:23.684Z,102443.25
2023-02-14T00:03:51.395Z,102441.44
2023-02-14T00:06:18.775Z,102442.22
2023-02-14T00:08:46.284Z,102430.09
2023-02-14T00:11:14.418Z,102434.34
2023-02-14T00:14:02.189Z,102435.12
2023-02-14T00:16:29.999Z,102370.16
2023-02-14T00:19:04.415Z,102430.00
2023-02-14T00:21:38.437Z,102433.34
2023-02-14T00:24:09.383Z,102435.00
2023-02-14T00:26:40.433Z,102400.88
2023-02-14T00:29:11.660Z,102435.91
2023-02-14T00:31:40.687Z,102425.75
2023-02-14T00:34:09.720Z,102428.12
2023-02-14T00:36:37.455Z,102432.38
2023-02-14T00:39:07.938Z,102434.19
2023-02-14T00:41:38.652Z,102423.88
2023-02-14T00:44:06.959Z,102423.78
2023-02-14T00:46:35.408Z,102429.87
2023-02-14T00:49:03.363Z,102426.53
2023-02-14T00:51:31.548Z,102427.41
2023-02-14T00:53:59.013Z,102434.28
2023-02-14T00:56:26.566Z,102441.38
2023-02-14T00:58:54.442Z,102437.91
2023-02-14T01:01:22.183Z,102422.38
2023-02-14T01:03:49.900Z,102416.31
2023-02-14T01:06:19.075Z,102419.78
2023-02-14T01:08:46.834Z,102420.56
2023-02-14T01:11:18.784Z,102417.06
2023-02-14T01:13:48.236Z,102412.69
2023-02-14T01:16:19.015Z,102361.50
2023-02-14T01:18:47.294Z,102356.31
2023-02-14T01:21:21.565Z,102405.81
2023-02-14T01:23:52.520Z,102409.28
2023-02-14T01:26:22.057Z,102408.44
2023-02-14T01:28:49.936Z,102407.56
2023-02-14T01:31:20.733Z,102410.16
2023-02-14T01:33:49.333Z,102408.34
2023-02-14T01:36:20.825Z,102400.69
2023-02-14T01:38:51.177Z,102343.47
2023-02-14T01:41:19.132Z,102390.22
2023-02-14T01:43:57.314Z,102390.13
2023-02-14T01:46:27.403Z,102345.91
2023-02-14T01:49:18.418Z,102337.44
2023-02-14T01:51:52.874Z,102340.97
2023-02-14T01:54:26.113Z,102388.75
2023-02-14T01:56:58.631Z,102387.06
2023-02-14T01:59:31.448Z,102386.22
2023-02-14T02:01:59.714Z,102381.78
2023-02-14T02:04:51.203Z,102380.16
2023-02-14T02:07:23.428Z,102379.31
2023-02-14T02:09:56.034Z,102367.34
2023-02-14T02:12:24.728Z,102367.41
2023-02-14T02:14:55.255Z,102370.88
2023-02-14T02:17:35.259Z,102370.09
2023-02-14T02:20:21.540Z,102367.41
2023-02-14T02:23:10.729Z,102357.94
2023-02-14T02:26:16.893Z,102294.91
2023-02-14T02:29:07.700Z,102339.91
2023-02-14T02:31:47.392Z,102339.22
2023-02-14T02:34:52.428Z,102335.22
2023-02-14T02:37:27.206Z,102344.84
2023-02-14T02:40:30.143Z,102353.69
2023-02-14T02:43:16.445Z,102342.56
2023-02-14T02:46:14.191Z,102349.53
2023-02-14T02:48:58.569Z,102338.50
2023-02-14T02:52:11.002Z,102340.16
2023-02-14T02:54:49.262Z,102336.13
2023-02-14T02:57:24.494Z,102342.72
2023-02-14T02:59:56.012Z,102333.28
2023-02-14T03:02:30.577Z,102330.59
2023-02-14T03:05:04.576Z,102347.84
2023-02-14T03:07:40.778Z,102339.19
2023-02-14T03:10:25.508Z,102332.31
2023-02-14T03:13:27.194Z,102343.78
2023-02-14T03:16:26.991Z,102345.88
2023-02-14T03:19:11.400Z,102347.06
2023-02-14T03:22:29.627Z,102348.00
2023-02-14T03:25:11.361Z,102343.81
2023-02-14T03:27:47.003Z,102341.44
2023-02-14T03:30:28.066Z,102336.62
2023-02-14T03:33:04.481Z,102324.97
2023-02-14T03:35:37.565Z,102343.94
2023-02-14T03:38:22.087Z,102341.41
2023-02-14T03:40:58.283Z,102357.12
2023-02-14T03:43:50.005Z,102339.94
2023-02-14T03:46:34.046Z,102348.66
2023-02-14T03:49:06.157Z,102352.25
2023-02-14T03:51:35.940Z,102353.06
2023-02-14T03:54:07.103Z,102348.81
2023-02-14T03:56:42.656Z,102333.66
2023-02-14T03:59:23.905Z,102350.53
2023-02-14T04:02:04.383Z,102356.59
2023-02-14T04:04:36.010Z,102356.59
2023-02-14T04:07:20.531Z,102350.47
2023-02-14T04:09:48.857Z,102341.22
2023-02-14T04:12:19.827Z,102348.22
2023-02-14T04:14:51.639Z,102343.03
2023-02-14T04:17:37.758Z,102345.34
2023-02-14T04:20:06.644Z,102353.13
2023-02-14T04:22:34.161Z,102348.59
2023-02-14T04:25:01.595Z,102357.97
2023-02-14T04:27:29.368Z,102356.03
2023-02-14T04:29:56.968Z,102354.38
2023-02-14T04:32:24.656Z,102353.66
2023-02-14T04:34:52.523Z,102351.94
2023-02-14T04:37:20.130Z,102342.34
2023-02-14T04:39:47.614Z,102347.69
2023-02-14T04:42:15.750Z,102288.72
2023-02-14T04:44:43.256Z,102346.97
2023-02-14T04:47:10.686Z,102347.69
2023-02-14T04:49:38.689Z,102352.94
2023-02-14T04:52:06.728Z,102347.88
2023-02-14T04:54:34.211Z,102339.59
2023-02-14T04:57:01.996Z,102345.78
2023-02-14T04:59:29.411Z,102282.72
2023-02-14T05:01:56.935Z,102349.53
2023-02-14T05:04:25.015Z,102344.56
2023-02-14T05:06:52.442Z,102337.81
2023-02-14T05:09:20.093Z,102352.72
2023-02-14T05:11:47.932Z,102351.03
2023-02-14T05:14:15.455Z,102320.38
2023-02-14T05:16:43.136Z,102358.13
2023-02-14T05:19:10.969Z,102354.84
2023-02-14T05:21:38.749Z,102357.50
2023-02-14T05:24:06.340Z,102356.69
2023-02-14T05:26:34.236Z,102345.47
2023-02-14T05:29:01.767Z,102352.44
2023-02-14T05:31:29.286Z,102352.56
2023-02-14T05:33:57.063Z,102359.47
2023-02-14T05:36:24.527Z,102362.88
2023-02-14T05:38:51.986Z,102355.03
2023-02-14T05:41:19.782Z,102322.75
2023-02-14T05:43:47.239Z,102316.97
2023-02-14T05:46:14.999Z,102362.88
2023-02-14T05:48:42.877Z,102358.78
2023-02-14T05:51:10.989Z,102360.50
2023-02-14T05:53:39.356Z,102361.38
2023-02-14T05:56:07.861Z,102363.16
2023-02-14T05:58:35.505Z,102355.25
2023-02-14T06:01:03.165Z,102365.63
2023-02-14T06:03:30.938Z,102366.31
2023-02-14T06:05:58.367Z,102371.56
2023-02-14T06:08:25.787Z,102375.87
2023-02-14T06:10:53.707Z,102371.63
2023-02-14T06:13:21.215Z,102364.75
2023-02-14T06:15:48.659Z,102371.63
2023-02-14T06:18:16.715Z,102374.38
2023-02-14T06:20:44.292Z,102325.72
2023-02-14T06:23:15.348Z,102319.75
2023-02-14T06:25:43.179Z,102381.22
2023-02-14T06:28:11.521Z,102376.84
2023-02-14T06:30:39.223Z,102384.78
2023-02-14T06:33:07.225Z,102335.28
2023-02-14T06:35:34.719Z,102390.94
